Duncans Bridge, Missouri
Current Conditions -  °F | °C
As of 3:07 AM on Friday 31 Oct 2014 (Local Time) from KIRK Reporting Station
Overcast Overcast  
Wind Chill: 41°   Ceiling: 2700
Heat Index: 48°   Visibility: 9mi
Dew Point: 39°   Wind: 18mph
Humidity: 71%   Direction: 340°NNW
Pressure: 30.22"   Gusts: 29mph
Location:  39.735°N, 92.239°W
Report Text: KIRK 310807Z AUTO 34016G25KT 9SM OVC027 09/04 A3022 RMK AO2 T00890039
Loading
Personal Weather Stations






























Interactive Weather Map
Tropical Storm Tracking
New forecast layout! Learn more

10-Day Weather Forecast

Advertisements
Track Severe Weather on mobile